createdAt,value
2017-09-22T00:00:58.471Z,16.23
2017-09-22T00:03:27.336Z,16.43
2017-09-22T00:05:56.220Z,15.17
2017-09-22T00:08:25.088Z,16.67
2017-09-22T00:10:53.976Z,15.80
2017-09-22T00:13:22.845Z,16.50
2017-09-22T00:15:51.725Z,15.70
2017-09-22T00:18:20.584Z,14.83
2017-09-22T00:20:49.470Z,15.20
2017-09-22T00:23:18.339Z,15.10
2017-09-22T00:25:47.221Z,13.87
2017-09-22T00:28:16.084Z,15.03
2017-09-22T00:30:44.969Z,15.40
2017-09-22T00:33:13.837Z,17.00
2017-09-22T00:35:42.713Z,15.50
2017-09-22T00:38:11.588Z,17.87
2017-09-22T00:40:40.464Z,17.07
2017-09-22T00:43:09.328Z,16.97
2017-09-22T00:45:38.212Z,15.53
2017-09-22T00:48:07.068Z,15.60
2017-09-22T00:50:35.947Z,15.63
2017-09-22T00:53:04.820Z,16.60
2017-09-22T00:55:33.688Z,14.97
2017-09-22T00:58:02.567Z,18.50
2017-09-22T01:00:31.428Z,18.67
2017-09-22T01:03:00.313Z,18.97
2017-09-22T01:05:29.181Z,17.43
2017-09-22T01:07:58.059Z,17.10
2017-09-22T01:10:26.932Z,17.60
2017-09-22T01:12:55.817Z,17.20
2017-09-22T01:15:24.678Z,16.83
2017-09-22T01:17:53.567Z,15.47
2017-09-22T01:20:22.476Z,18.37
2017-09-22T01:22:51.356Z,18.47
2017-09-22T01:25:20.221Z,18.00
2017-09-22T01:27:49.100Z,16.10
2017-09-22T01:30:17.980Z,15.90
2017-09-22T01:32:46.860Z,19.43
2017-09-22T01:35:15.720Z,17.07
2017-09-22T01:37:44.597Z,16.20
2017-09-22T01:40:13.460Z,17.90
2017-09-22T01:42:42.340Z,16.90
2017-09-22T01:45:11.204Z,15.07
2017-09-22T01:47:40.084Z,14.17
2017-09-22T01:50:08.956Z,14.90
2017-09-22T01:52:37.831Z,15.77
2017-09-22T01:55:06.687Z,16.47
2017-09-22T01:57:35.560Z,15.77
2017-09-22T02:00:04.423Z,16.30
2017-09-22T02:02:33.300Z,18.17
2017-09-22T02:05:02.188Z,16.40
2017-09-22T02:07:31.068Z,17.07
2017-09-22T02:09:59.933Z,16.30
2017-09-22T02:12:28.848Z,16.33
2017-09-22T02:14:57.713Z,15.63
2017-09-22T02:17:26.584Z,14.40
2017-09-22T02:19:55.460Z,15.50
2017-09-22T02:22:24.324Z,15.40
2017-09-22T02:24:53.201Z,14.90
2017-09-22T02:27:22.153Z,13.90
2017-09-22T02:29:51.028Z,15.20
2017-09-22T02:32:19.892Z,15.07
2017-09-22T02:34:48.777Z,16.00
2017-09-22T02:37:17.646Z,17.27
2017-09-22T02:39:46.532Z,15.13
2017-09-22T02:42:15.412Z,14.87
2017-09-22T02:44:44.288Z,14.10
2017-09-22T02:47:13.157Z,15.33
2017-09-22T02:49:42.046Z,15.83
2017-09-22T02:52:10.909Z,15.50
2017-09-22T02:54:39.789Z,16.13
2017-09-22T02:57:08.648Z,15.10
2017-09-22T02:59:37.525Z,15.50
2017-09-22T03:02:06.404Z,14.93
2017-09-22T03:04:35.286Z,15.87
2017-09-22T03:07:04.153Z,14.10
2017-09-22T03:09:33.036Z,15.87
2017-09-22T03:12:01.902Z,14.10
2017-09-22T03:14:30.776Z,15.30
2017-09-22T03:16:59.653Z,17.03
2017-09-22T03:19:28.522Z,15.00
2017-09-22T03:21:57.401Z,14.97
2017-09-22T03:24:26.263Z,13.43
2017-09-22T03:26:55.153Z,13.50
2017-09-22T03:29:24.020Z,13.80
2017-09-22T03:31:52.896Z,15.57
2017-09-22T03:34:21.761Z,14.80
2017-09-22T03:36:50.639Z,14.47
2017-09-22T03:39:19.500Z,16.33
2017-09-22T03:41:48.384Z,15.20
2017-09-22T03:44:17.261Z,13.70
2017-09-22T03:46:46.145Z,16.90
2017-09-22T03:49:15.012Z,14.90
2017-09-22T03:51:43.899Z,14.57
2017-09-22T03:54:12.772Z,15.17
2017-09-22T03:56:41.680Z,15.07
2017-09-22T03:59:10.645Z,14.00
2017-09-22T04:01:39.516Z,15.70
2017-09-22T04:04:08.404Z,15.20
2017-09-22T04:06:37.271Z,16.30
2017-09-22T04:09:06.167Z,14.90
2017-09-22T04:11:35.025Z,16.57
2017-09-22T04:14:03.903Z,16.27
2017-09-22T04:16:32.769Z,17.47
2017-09-22T04:19:01.653Z,16.27
2017-09-22T04:21:30.524Z,16.63
2017-09-22T04:23:59.404Z,15.87
2017-09-22T04:26:28.269Z,15.57
2017-09-22T04:28:57.152Z,13.70
2017-09-22T04:31:26.024Z,15.43
2017-09-22T04:33:54.908Z,15.63
2017-09-22T04:36:23.787Z,16.20
2017-09-22T04:38:52.665Z,17.57
2017-09-22T04:41:21.541Z,16.57
2017-09-22T04:43:50.432Z,15.43
2017-09-22T04:46:19.309Z,15.77
2017-09-22T04:48:48.196Z,15.33
2017-09-22T04:51:17.060Z,17.03
2017-09-22T04:53:45.968Z,15.70
2017-09-22T04:56:14.837Z,15.87
2017-09-22T04:58:43.711Z,16.20
2017-09-22T05:01:12.588Z,18.70
2017-09-22T05:03:41.460Z,17.60
2017-09-22T05:06:10.336Z,16.10
2017-09-22T05:08:39.209Z,17.00
2017-09-22T05:11:08.097Z,18.30
2017-09-22T05:13:36.976Z,19.73
2017-09-22T05:16:05.855Z,19.63
2017-09-22T05:18:34.740Z,16.37
2017-09-22T05:21:03.623Z,16.30
2017-09-22T05:23:32.493Z,17.73
2017-09-22T05:26:01.392Z,18.47
2017-09-22T05:28:30.289Z,16.10
2017-09-22T05:30:59.185Z,17.33
2017-09-22T05:33:28.072Z,17.60
2017-09-22T05:35:56.951Z,17.27
2017-09-22T05:38:25.821Z,16.47
2017-09-22T05:40:54.696Z,16.00
2017-09-22T05:43:23.564Z,16.60
2017-09-22T05:45:52.436Z,15.33
2017-09-22T05:48:21.299Z,17.10
2017-09-22T05:50:50.180Z,15.80
2017-09-22T05:53:19.063Z,16.93
2017-09-22T05:55:47.947Z,16.27
2017-09-22T05:58:16.832Z,14.47
2017-09-22T06:00:45.705Z,13.60
2017-09-22T06:03:14.592Z,14.40
2017-09-22T06:05:43.461Z,14.87
2017-09-22T06:08:12.347Z,14.50
2017-09-22T06:10:41.212Z,13.03
2017-09-22T06:13:10.096Z,13.60
2017-09-22T06:15:38.972Z,14.73
2017-09-22T06:18:07.861Z,13.37
2017-09-22T06:20:36.720Z,13.50
2017-09-22T06:23:05.613Z,13.93
2017-09-22T06:25:34.484Z,12.27
2017-09-22T06:28:03.364Z,10.20
2017-09-22T06:30:32.241Z,11.37
2017-09-22T06:33:01.125Z,9.53
2017-09-22T06:35:29.989Z,10.37
2017-09-22T06:37:58.943Z,8.60
2017-09-22T06:40:27.816Z,9.07
2017-09-22T06:42:56.696Z,6.30
2017-09-22T06:45:25.556Z,8.53
2017-09-22T06:47:54.432Z,6.90
2017-09-22T06:50:23.280Z,7.00
2017-09-22T06:52:52.152Z,5.30
2017-09-22T06:55:21.013Z,7.60
2017-09-22T06:57:49.888Z,6.40
2017-09-22T07:00:18.743Z,5.53
2017-09-22T07:02:47.649Z,5.07
2017-09-22T07:05:16.507Z,5.23
2017-09-22T07:07:45.372Z,5.83
2017-09-22T07:10:14.248Z,6.17
2017-09-22T07:12:43.109Z,6.07
2017-09-22T07:15:11.984Z,6.50
2017-09-22T07:17:40.845Z,5.00
2017-09-22T07:20:09.721Z,3.57
2017-09-22T07:22:38.573Z,5.87
2017-09-22T07:25:07.448Z,4.90
2017-09-22T07:27:36.317Z,5.57
2017-09-22T07:30:05.193Z,4.18
2017-09-22T07:32:34.053Z,6.18
2017-09-22T07:35:02.923Z,5.35
2017-09-22T07:37:31.784Z,4.15
2017-09-22T07:40:00.656Z,3.30
2017-09-22T07:42:29.532Z,5.18
2017-09-22T07:44:58.409Z,4.70
2017-09-22T07:47:27.273Z,4.80
2017-09-22T07:49:56.216Z,3.40
2017-09-22T07:52:25.078Z,3.53
2017-09-22T07:54:53.947Z,5.55
2017-09-22T07:57:22.825Z,4.03
2017-09-22T07:59:51.676Z,3.87
2017-09-22T08:02:20.651Z,4.28
2017-09-22T08:04:49.514Z,4.05
2017-09-22T08:07:18.380Z,2.55
2017-09-22T08:09:47.241Z,2.35
2017-09-22T08:12:16.111Z,3.53
2017-09-22T08:14:44.969Z,3.40
2017-09-22T08:17:13.849Z,4.10
2017-09-22T08:19:42.704Z,2.97
2017-09-22T08:22:11.673Z,2.10
2017-09-22T08:24:40.533Z,2.70
2017-09-22T08:27:09.408Z,2.28
2017-09-22T08:29:38.266Z,2.95
2017-09-22T08:32:07.193Z,2.30
2017-09-22T08:34:36.065Z,4.87
2017-09-22T08:37:04.948Z,3.20
2017-09-22T08:39:33.809Z,3.17
2017-09-22T08:42:02.700Z,2.62
2017-09-22T08:44:31.561Z,2.47
2017-09-22T08:47:00.440Z,2.30
2017-09-22T08:49:29.301Z,2.65
2017-09-22T08:51:58.175Z,3.75
2017-09-22T08:54:27.041Z,2.17
2017-09-22T08:56:55.921Z,3.15
2017-09-22T08:59:24.778Z,3.20
2017-09-22T09:01:53.684Z,2.42
2017-09-22T09:04:22.544Z,3.12
2017-09-22T09:06:51.414Z,2.83
2017-09-22T09:09:20.288Z,2.83
2017-09-22T09:11:49.158Z,2.67
2017-09-22T09:14:18.042Z,2.70
2017-09-22T09:16:46.905Z,2.80
2017-09-22T09:19:15.783Z,3.67
2017-09-22T09:21:44.645Z,3.90
2017-09-22T09:24:13.525Z,2.62
2017-09-22T09:26:42.401Z,3.03
2017-09-22T09:29:11.334Z,2.35
2017-09-22T09:31:40.193Z,2.65
2017-09-22T09:34:09.069Z,3.08
2017-09-22T09:36:37.929Z,3.03
2017-09-22T09:39:06.875Z,2.65
2017-09-22T09:41:35.730Z,2.40
2017-09-22T09:44:04.617Z,3.80
2017-09-22T09:46:33.566Z,2.42
2017-09-22T09:49:02.449Z,2.85
2017-09-22T09:51:32.393Z,2.40
2017-09-22T09:54:01.271Z,2.53
2017-09-22T09:56:30.851Z,2.70
2017-09-22T09:58:59.725Z,2.37
2017-09-22T10:01:28.648Z,2.20
2017-09-22T10:03:57.683Z,2.50
2017-09-22T10:06:26.547Z,2.10
2017-09-22T10:08:55.404Z,2.33
2017-09-22T10:11:24.289Z,2.80
2017-09-22T10:13:53.149Z,2.55
2017-09-22T10:16:22.025Z,2.30
2017-09-22T10:18:50.908Z,2.60
2017-09-22T10:21:19.792Z,2.28
2017-09-22T10:23:48.660Z,2.37
2017-09-22T10:26:17.540Z,1.70
2017-09-22T10:28:46.470Z,2.10
2017-09-22T10:31:15.344Z,1.73
2017-09-22T10:33:44.209Z,1.95
2017-09-22T10:36:13.181Z,1.90
2017-09-22T10:38:42.088Z,3.30
2017-09-22T10:41:10.969Z,2.42
2017-09-22T10:43:39.824Z,2.10
2017-09-22T10:46:08.692Z,2.40
2017-09-22T10:48:37.569Z,2.35
2017-09-22T10:51:06.572Z,2.62
2017-09-22T10:53:35.454Z,2.50
2017-09-22T10:56:04.340Z,2.08
2017-09-22T10:58:33.271Z,2.00
2017-09-22T11:01:02.148Z,1.80
2017-09-22T11:03:31.012Z,2.50
2017-09-22T11:05:59.932Z,2.33
2017-09-22T11:08:28.802Z,2.37
2017-09-22T11:10:57.718Z,2.20
2017-09-22T11:13:26.588Z,2.50
2017-09-22T11:15:55.444Z,3.17
2017-09-22T11:18:24.323Z,1.83
2017-09-22T11:20:53.187Z,2.72
2017-09-22T11:23:22.065Z,1.77
2017-09-22T11:25:50.934Z,1.98
2017-09-22T11:28:19.812Z,2.35
2017-09-22T11:30:48.447Z,1.85
2017-09-22T11:33:17.339Z,3.50
2017-09-22T11:35:46.202Z,2.80
2017-09-22T11:38:15.081Z,1.95
2017-09-22T11:40:43.936Z,2.83
2017-09-22T11:43:12.822Z,2.25
2017-09-22T11:45:41.680Z,3.90
2017-09-22T11:48:10.560Z,1.48
2017-09-22T11:50:39.416Z,2.10
2017-09-22T11:53:08.292Z,2.08
2017-09-22T11:55:37.158Z,2.22
2017-09-22T11:58:06.045Z,1.80
2017-09-22T12:00:34.942Z,1.80
2017-09-22T12:03:03.816Z,2.15
2017-09-22T12:05:32.672Z,1.80
2017-09-22T12:08:01.548Z,1.70
2017-09-22T12:10:30.407Z,1.75
2017-09-22T12:12:59.299Z,1.60
2017-09-22T12:15:28.160Z,1.75
2017-09-22T12:17:57.016Z,2.03
2017-09-22T12:20:25.888Z,1.77
2017-09-22T12:22:54.751Z,1.70
2017-09-22T12:25:23.627Z,1.50
2017-09-22T12:27:52.495Z,1.80
2017-09-22T12:30:21.376Z,1.60
2017-09-22T12:32:50.228Z,1.52
2017-09-22T12:35:19.205Z,1.33
2017-09-22T12:37:48.069Z,1.85
2017-09-22T12:40:16.949Z,1.90
2017-09-22T12:42:45.809Z,1.55
2017-09-22T12:45:14.701Z,2.40
2017-09-22T12:47:43.560Z,2.22
2017-09-22T12:50:12.452Z,1.70
2017-09-22T12:52:41.309Z,2.20
2017-09-22T12:55:10.180Z,1.98
2017-09-22T12:57:39.041Z,2.67
2017-09-22T13:00:07.913Z,3.25
2017-09-22T13:02:36.768Z,2.50
2017-09-22T13:05:05.669Z,4.68
2017-09-22T13:07:34.529Z,2.80
2017-09-22T13:10:03.499Z,2.40
2017-09-22T13:12:32.382Z,1.83
2017-09-22T13:15:01.236Z,2.03
2017-09-22T13:17:30.103Z,2.00
2017-09-22T13:19:58.965Z,2.05
2017-09-22T13:22:27.832Z,1.90
2017-09-22T13:24:56.700Z,1.85
2017-09-22T13:27:25.584Z,3.00
2017-09-22T13:29:54.440Z,2.65
2017-09-22T13:32:23.319Z,2.30
2017-09-22T13:34:52.178Z,1.70
2017-09-22T13:37:21.061Z,2.57
2017-09-22T13:39:49.944Z,2.07
2017-09-22T13:42:18.825Z,1.83
2017-09-22T13:44:47.681Z,1.30
2017-09-22T13:47:16.552Z,1.50
2017-09-22T13:49:45.407Z,1.62
2017-09-22T13:52:14.301Z,2.08
2017-09-22T13:54:43.166Z,1.92
2017-09-22T13:57:12.045Z,1.65
2017-09-22T13:59:40.928Z,2.90
2017-09-22T14:02:09.792Z,2.28
2017-09-22T14:04:38.669Z,1.77
2017-09-22T14:07:07.540Z,2.05
2017-09-22T14:09:36.424Z,2.37
2017-09-22T14:12:05.369Z,2.80
2017-09-22T14:14:34.249Z,2.62
2017-09-22T14:17:03.126Z,2.50
2017-09-22T14:19:32.031Z,1.80
2017-09-22T14:22:00.892Z,1.80
2017-09-22T14:24:29.764Z,2.10
2017-09-22T14:26:58.612Z,2.92
2017-09-22T14:29:27.485Z,2.40
2017-09-22T14:31:56.340Z,2.58
2017-09-22T14:34:25.298Z,3.47
2017-09-22T14:36:54.157Z,1.75
2017-09-22T14:39:23.111Z,3.50
2017-09-22T14:41:51.999Z,3.20
2017-09-22T14:44:20.876Z,2.12
2017-09-22T14:46:49.741Z,4.72
2017-09-22T14:49:18.617Z,2.42
2017-09-22T14:51:47.473Z,2.30
2017-09-22T14:54:16.372Z,1.75
2017-09-22T14:56:45.250Z,1.67
2017-09-22T14:59:14.143Z,2.10
2017-09-22T15:01:43.020Z,2.60
2017-09-22T15:04:11.884Z,3.70
2017-09-22T15:06:40.760Z,2.40
2017-09-22T15:09:09.615Z,3.20
2017-09-22T15:11:38.493Z,3.22
2017-09-22T15:14:07.358Z,2.33
2017-09-22T15:16:36.280Z,2.15
2017-09-22T15:19:05.282Z,2.50
2017-09-22T15:21:34.157Z,2.67
2017-09-22T15:24:03.013Z,3.33
2017-09-22T15:26:31.885Z,2.90
2017-09-22T15:29:00.748Z,2.50
2017-09-22T15:31:29.621Z,2.90
2017-09-22T15:33:58.479Z,2.58
2017-09-22T15:36:27.364Z,2.22
2017-09-22T15:38:56.220Z,2.22
2017-09-22T15:41:25.093Z,2.70
2017-09-22T15:43:53.944Z,3.47
2017-09-22T15:46:22.824Z,1.90
2017-09-22T15:48:51.719Z,5.15
2017-09-22T15:51:20.609Z,3.17
2017-09-22T15:53:49.463Z,2.53
2017-09-22T15:56:18.341Z,2.10
2017-09-22T15:58:47.205Z,4.37
2017-09-22T16:01:16.097Z,3.33
2017-09-22T16:03:44.968Z,2.93
2017-09-22T16:06:13.836Z,2.90
2017-09-22T16:08:42.729Z,2.73
2017-09-22T16:11:11.580Z,1.70
2017-09-22T16:13:40.456Z,2.60
2017-09-22T16:16:09.315Z,3.20
2017-09-22T16:18:38.188Z,2.20
2017-09-22T16:21:07.044Z,5.30
2017-09-22T16:23:35.924Z,6.80
2017-09-22T16:26:04.778Z,3.50
2017-09-22T16:28:33.652Z,3.90
2017-09-22T16:31:02.519Z,2.43
2017-09-22T16:33:31.402Z,2.10
2017-09-22T16:36:00.260Z,2.60
2017-09-22T16:38:29.134Z,2.70
2017-09-22T16:40:57.990Z,2.83
2017-09-22T16:43:26.874Z,3.70
2017-09-22T16:45:55.727Z,2.20
2017-09-22T16:48:24.609Z,3.30
2017-09-22T16:50:53.478Z,2.63
2017-09-22T16:53:22.369Z,2.50
2017-09-22T16:55:51.222Z,2.90
2017-09-22T16:58:20.093Z,5.60
2017-09-22T17:00:48.961Z,9.17
2017-09-22T17:03:17.833Z,5.67
2017-09-22T17:05:46.687Z,5.10
2017-09-22T17:08:15.555Z,4.33
2017-09-22T17:10:44.417Z,4.13
2017-09-22T17:13:13.321Z,5.77
2017-09-22T17:15:42.185Z,5.37
2017-09-22T17:18:11.036Z,4.60
2017-09-22T17:20:39.917Z,5.70
2017-09-22T17:23:08.875Z,5.37
2017-09-22T17:25:37.747Z,5.07
2017-09-22T17:28:06.600Z,6.37
2017-09-22T17:30:35.477Z,5.50
2017-09-22T17:33:04.348Z,13.53
2017-09-22T17:35:33.231Z,10.93
2017-09-22T17:38:02.148Z,5.90
2017-09-22T17:40:31.020Z,5.93
2017-09-22T17:42:59.884Z,9.50
2017-09-22T17:45:28.766Z,13.30
2017-09-22T17:47:57.639Z,11.60
2017-09-22T17:50:26.525Z,11.10
2017-09-22T17:52:55.382Z,8.60
2017-09-22T17:55:24.257Z,10.20
2017-09-22T17:57:53.132Z,8.60
2017-09-22T18:00:22.001Z,7.97
2017-09-22T18:02:50.873Z,12.60
2017-09-22T18:05:19.753Z,10.13
2017-09-22T18:07:48.616Z,11.93
2017-09-22T18:10:17.497Z,14.97
2017-09-22T18:12:46.400Z,9.93
2017-09-22T18:15:15.272Z,8.20
2017-09-22T18:17:44.120Z,6.80
2017-09-22T18:20:12.996Z,7.23
2017-09-22T18:22:41.849Z,5.40
2017-09-22T18:25:10.750Z,5.70
2017-09-22T18:27:39.610Z,7.70
2017-09-22T18:30:08.469Z,6.90
2017-09-22T18:32:37.344Z,10.13
2017-09-22T18:35:06.210Z,8.70
2017-09-22T18:37:35.100Z,10.13
2017-09-22T18:40:03.965Z,10.73
2017-09-22T18:42:32.862Z,13.60
2017-09-22T18:45:01.784Z,11.47
2017-09-22T18:47:30.677Z,11.73
2017-09-22T18:50:00.352Z,13.53
2017-09-22T18:52:29.240Z,13.13
2017-09-22T18:54:58.099Z,14.00
2017-09-22T18:57:26.975Z,15.90
2017-09-22T18:59:55.846Z,19.97
2017-09-22T19:02:24.733Z,13.47
2017-09-22T19:04:53.596Z,12.80
2017-09-22T19:07:22.496Z,13.30
2017-09-22T19:09:51.356Z,14.23
2017-09-22T19:12:20.249Z,11.40
2017-09-22T19:14:49.125Z,10.80
2017-09-22T19:17:18.004Z,11.03
2017-09-22T19:19:46.864Z,9.93
2017-09-22T19:22:15.749Z,14.40
2017-09-22T19:24:44.618Z,12.80
2017-09-22T19:27:13.500Z,13.67
2017-09-22T19:29:42.360Z,13.60
2017-09-22T19:32:11.273Z,13.67
2017-09-22T19:34:40.136Z,21.80
2017-09-22T19:37:09.000Z,18.33
2017-09-22T19:39:37.892Z,12.00
2017-09-22T19:42:06.761Z,18.83
2017-09-22T19:44:35.649Z,21.67
2017-09-22T19:47:04.512Z,14.37
2017-09-22T19:49:33.389Z,12.40
2017-09-22T19:52:02.250Z,12.23
2017-09-22T19:54:31.157Z,14.00
2017-09-22T19:57:00.028Z,13.53
2017-09-22T19:59:28.906Z,15.53
2017-09-22T20:01:57.768Z,11.50
2017-09-22T20:04:26.660Z,11.50
2017-09-22T20:06:55.515Z,13.30
2017-09-22T20:09:24.396Z,12.30
2017-09-22T20:11:53.261Z,13.77
2017-09-22T20:14:22.141Z,26.97
2017-09-22T20:16:51.009Z,13.47
2017-09-22T20:19:19.884Z,14.07
2017-09-22T20:21:48.752Z,12.23
2017-09-22T20:24:17.636Z,12.70
2017-09-22T20:26:46.501Z,11.77
2017-09-22T20:29:15.393Z,12.33
2017-09-22T20:31:44.255Z,14.23
2017-09-22T20:34:13.132Z,11.70
2017-09-22T20:36:41.996Z,11.87
2017-09-22T20:39:10.873Z,13.90
2017-09-22T20:41:39.740Z,15.50
2017-09-22T20:44:08.612Z,18.67
2017-09-22T20:46:37.472Z,13.93
2017-09-22T20:49:06.357Z,9.60
2017-09-22T20:51:35.231Z,10.67
2017-09-22T20:54:04.111Z,11.87
2017-09-22T20:56:33.000Z,11.70
2017-09-22T20:59:01.908Z,12.97
2017-09-22T21:01:30.772Z,12.67
2017-09-22T21:03:59.636Z,12.47
2017-09-22T21:06:28.523Z,14.37
2017-09-22T21:08:57.387Z,14.27
2017-09-22T21:11:26.268Z,14.33
2017-09-22T21:13:55.128Z,14.40
2017-09-22T21:16:24.020Z,16.33
2017-09-22T21:18:52.889Z,14.67
2017-09-22T21:21:21.768Z,11.63
2017-09-22T21:23:50.645Z,13.57
2017-09-22T21:26:19.515Z,12.20
2017-09-22T21:28:48.382Z,13.73
2017-09-22T21:31:17.265Z,18.57
2017-09-22T21:33:46.128Z,15.83
2017-09-22T21:36:14.999Z,17.30
2017-09-22T21:38:43.864Z,22.20
2017-09-22T21:41:12.740Z,16.47
2017-09-22T21:43:41.601Z,16.67
2017-09-22T21:46:10.484Z,15.73
2017-09-22T21:48:39.348Z,14.27
2017-09-22T21:51:08.233Z,20.20
2017-09-22T21:53:37.099Z,19.57
2017-09-22T21:56:05.973Z,19.43
2017-09-22T21:58:34.836Z,23.77
2017-09-22T22:01:03.752Z,16.47
2017-09-22T22:03:50.424Z,12.93
2017-09-22T22:06:25.100Z,13.83
2017-09-22T22:08:59.780Z,13.43
2017-09-22T22:11:28.670Z,11.87
2017-09-22T22:13:57.536Z,13.20
2017-09-22T22:16:26.410Z,12.23
2017-09-22T22:18:55.278Z,19.97
2017-09-22T22:21:24.192Z,20.10
2017-09-22T22:23:53.057Z,16.37
2017-09-22T22:26:21.925Z,18.60
2017-09-22T22:28:50.804Z,16.77
2017-09-22T22:31:19.664Z,13.50
2017-09-22T22:33:48.556Z,15.13
2017-09-22T22:36:23.339Z,20.60
2017-09-22T22:38:52.212Z,18.30
2017-09-22T22:41:21.076Z,13.70
2017-09-22T22:43:49.963Z,16.43
2017-09-22T22:46:18.832Z,15.40
2017-09-22T22:48:47.708Z,15.70
2017-09-22T22:51:16.572Z,16.50
2017-09-22T22:53:45.444Z,20.90
2017-09-22T22:56:14.309Z,17.63
2017-09-22T22:58:43.179Z,16.07
2017-09-22T23:01:12.040Z,16.90
2017-09-22T23:03:41.872Z,14.00
2017-09-22T23:06:10.797Z,16.30
2017-09-22T23:08:39.682Z,17.03
2017-09-22T23:11:08.548Z,16.27
2017-09-22T23:13:37.432Z,16.20
2017-09-22T23:16:06.296Z,18.80
2017-09-22T23:18:35.182Z,18.30
2017-09-22T23:21:04.043Z,16.80
2017-09-22T23:23:32.929Z,18.33
2017-09-22T23:26:01.788Z,17.83
2017-09-22T23:28:30.673Z,18.90
2017-09-22T23:30:59.544Z,17.70
2017-09-22T23:33:28.440Z,19.17
2017-09-22T23:35:57.310Z,17.80
2017-09-22T23:38:26.180Z,19.47
2017-09-22T23:40:55.060Z,19.63
2017-09-22T23:43:23.919Z,19.97
2017-09-22T23:45:52.796Z,20.10
2017-09-22T23:48:21.758Z,16.30
2017-09-22T23:50:50.632Z,18.20
2017-09-22T23:53:19.498Z,18.40
2017-09-22T23:55:48.381Z,16.40
2017-09-22T23:58:17.248Z,17.93
